Time;durP1;ratioP1;P1;durP2;ratioP2;P2;SDS_P1;SDS_P2;PMS_P1;PMS_P2;Temp;Humidity;BMP_temperature;BMP_pressure;BME280_temperature;BME280_humidity;BME280_pressure;Samples;Min_cycle;Max_cycle;Signal;HPM_P1;HPM_P2
2023/01/06 00:03:09;;;;;;;25.80;4.40;;;;;9.20;96907.00;;;;8202949;28;20203;-71
2023/01/06 00:07:14;;;;;;;24.83;3.77;;;;;9.20;96903.00;;;;8197601;28;20199;-71
2023/01/06 00:11:23;;;;;;;18.53;3.37;;;;;9.20;96910.00;;;;8204481;28;20582;-71
2023/01/06 00:15:29;;;;;;;15.17;3.13;;;;;9.20;96901.00;;;;8203838;28;20306;-70
2023/01/06 00:19:34;;;;;;;26.70;4.00;;;;;9.20;96894.00;;;;8205078;28;20269;-71
2023/01/06 00:23:39;;;;;;;16.25;3.63;;;;;9.20;96884.00;;;;8213128;28;20209;-71
2023/01/06 00:27:44;;;;;;;19.33;3.87;;;;;9.20;96875.00;;;;8205785;28;20262;-71
2023/01/06 00:31:48;;;;;;;23.57;4.00;;;;;9.20;96879.00;;;;8211866;28;20211;-71
2023/01/06 00:35:51;;;;;;;27.50;4.00;;;;;9.20;96875.00;;;;8216487;28;20207;-70
2023/01/06 00:39:56;;;;;;;20.80;3.43;;;;;9.30;96871.00;;;;8216357;28;20234;-69
2023/01/06 00:44:00;;;;;;;17.80;3.90;;;;;9.30;96861.00;;;;8220780;28;20199;-72
2023/01/06 00:48:05;;;;;;;22.80;5.07;;;;;9.30;96863.00;;;;8213497;28;20210;-72
2023/01/06 00:52:08;;;;;;;29.63;4.22;;;;;9.30;96867.00;;;;8218955;28;20203;-70
2023/01/06 00:56:18;;;;;;;25.70;4.53;;;;;9.30;96870.00;;;;8214901;28;20219;-71
2023/01/06 01:00:23;;;;;;;27.20;4.70;;;;;9.30;96871.00;;;;8216369;28;20244;-70
2023/01/06 01:04:26;;;;;;;18.60;4.72;;;;;9.30;96874.00;;;;8215407;28;20270;-72
2023/01/06 01:08:30;;;;;;;24.50;4.05;;;;;9.20;96870.00;;;;8213054;28;20203;-72
2023/01/06 01:12:35;;;;;;;21.27;4.03;;;;;9.20;96875.00;;;;8216203;28;20562;-75
2023/01/06 01:16:42;;;;;;;27.15;4.00;;;;;9.10;96874.00;;;;8217617;28;20250;-74
2023/01/06 01:20:48;;;;;;;21.43;4.73;;;;;9.10;96871.00;;;;8214628;28;20796;-75
2023/01/06 01:24:51;;;;;;;18.97;3.90;;;;;9.10;96872.00;;;;8213305;28;20199;-74
2023/01/06 01:28:56;;;;;;;18.67;4.33;;;;;9.00;96871.00;;;;8210792;28;20204;-73
2023/01/06 01:33:02;;;;;;;18.47;4.27;;;;;9.00;96871.00;;;;8212294;28;20776;-72
2023/01/06 01:37:05;;;;;;;16.35;4.10;;;;;8.90;96872.00;;;;8210712;28;20630;-73
2023/01/06 01:41:13;;;;;;;17.83;3.83;;;;;8.80;96864.00;;;;8214228;28;20223;-73
2023/01/06 01:45:24;;;;;;;19.13;3.92;;;;;8.70;96864.00;;;;8212738;28;20294;-75
2023/01/06 01:49:36;;;;;;;30.00;4.47;;;;;8.70;96870.00;;;;8216974;28;20218;-74
2023/01/06 01:53:43;;;;;;;25.53;4.20;;;;;8.80;96855.00;;;;8214636;28;20207;-73
2023/01/06 01:57:50;;;;;;;23.00;4.22;;;;;8.80;96858.00;;;;8207462;28;20203;-76
2023/01/06 02:02:00;;;;;;;22.47;4.87;;;;;8.80;96851.00;;;;8211477;28;20693;-74
2023/01/06 02:06:13;;;;;;;18.63;3.77;;;;;8.70;96845.00;;;;8220876;28;20204;-72
2023/01/06 02:10:21;;;;;;;21.98;4.20;;;;;8.70;96846.00;;;;8214850;28;20267;-76
2023/01/06 02:14:27;;;;;;;19.80;4.20;;;;;8.60;96833.00;;;;8219246;28;20286;-74
2023/01/06 02:18:45;;;;;;;23.13;4.83;;;;;8.50;96837.00;;;;8210146;28;20211;-74
2023/01/06 02:23:24;;;;;;;14.50;4.20;;;;;8.50;96832.00;;;;8217904;28;20297;-75
2023/01/06 02:28:06;;;;;;;22.27;4.78;;;;;8.40;96835.00;;;;8217192;28;20210;-78
2023/01/06 02:32:23;;;;;;;22.23;4.20;;;;;8.30;96817.00;;;;8214908;28;20205;-75
2023/01/06 02:36:43;;;;;;;16.50;3.85;;;;;8.20;96819.00;;;;8207477;28;20557;-73
2023/01/06 02:41:02;;;;;;;29.57;4.60;;;;;8.10;96816.00;;;;8212720;28;20255;-73
2023/01/06 02:45:16;;;;;;;23.80;4.47;;;;;8.20;96826.00;;;;8211473;28;20862;-73
2023/01/06 02:49:30;;;;;;;32.93;5.73;;;;;8.20;96821.00;;;;8214631;28;20204;-75
2023/01/06 02:53:41;;;;;;;17.98;4.50;;;;;8.20;96828.00;;;;8215709;28;20223;-76
2023/01/06 02:57:54;;;;;;;19.80;4.93;;;;;8.30;96820.00;;;;8212537;28;20207;-73
2023/01/06 03:02:04;;;;;;;30.70;5.90;;;;;8.40;96817.00;;;;8245019;23;20337;-78
2023/01/06 03:06:11;;;;;;;18.87;5.50;;;;;8.50;96819.00;;;;8245540;28;20334;-77
2023/01/06 03:10:21;;;;;;;16.80;5.10;;;;;8.60;96820.00;;;;8245917;28;20257;-75
2023/01/06 03:14:36;;;;;;;27.40;5.90;;;;;8.60;96817.00;;;;8248879;28;20250;-75
2023/01/06 03:18:43;;;;;;;22.15;5.43;;;;;8.70;96807.00;;;;8245415;28;20214;-76
2023/01/06 03:22:49;;;;;;;17.33;5.60;;;;;8.70;96812.00;;;;8251100;28;20234;-76
2023/01/06 03:26:55;;;;;;;25.40;6.95;;;;;8.70;96801.00;;;;8252841;28;20249;-74
2023/01/06 03:31:07;;;;;;;22.77;6.57;;;;;8.80;96800.00;;;;8244343;28;20206;-73
2023/01/06 03:35:30;;;;;;;20.90;5.73;;;;;8.80;96802.00;;;;8252997;28;20191;-73
2023/01/06 03:39:39;;;;;;;24.77;6.20;;;;;8.70;96802.00;;;;8251812;28;20644;-76
2023/01/06 03:43:50;;;;;;;32.67;6.07;;;;;8.80;96798.00;;;;8250805;28;20227;-76
2023/01/06 03:48:02;;;;;;;22.83;7.50;;;;;8.70;96794.00;;;;8246505;28;20191;-76
2023/01/06 03:52:11;;;;;;;21.03;6.40;;;;;8.70;96788.00;;;;8244764;28;20616;-75
2023/01/06 03:56:23;;;;;;;19.90;5.65;;;;;8.70;96787.00;;;;8246673;28;20257;-75
2023/01/06 04:00:31;;;;;;;24.43;5.93;;;;;8.70;96793.00;;;;8250112;28;20223;-75
2023/01/06 04:04:34;;;;;;;23.55;5.93;;;;;8.60;96783.00;;;;8252150;28;20235;-76
2023/01/06 04:08:38;;;;;;;20.93;5.90;;;;;8.60;96780.00;;;;8256063;28;20206;-75
2023/01/06 04:12:42;;;;;;;22.08;6.00;;;;;8.50;96772.00;;;;8255387;28;20261;-76
2023/01/06 04:16:45;;;;;;;19.33;5.63;;;;;8.40;96778.00;;;;8256352;28;20670;-76
2023/01/06 04:20:48;;;;;;;26.42;5.65;;;;;8.20;96768.00;;;;8252185;28;20223;-75
2023/01/06 04:24:53;;;;;;;25.90;6.20;;;;;8.10;96778.00;;;;8257164;28;20218;-76
2023/01/06 04:28:58;;;;;;;22.60;6.63;;;;;7.90;96762.00;;;;8257138;28;20206;-74
2023/01/06 04:33:02;;;;;;;19.10;6.73;;;;;7.80;96763.00;;;;8257357;28;20199;-75
2023/01/06 04:37:05;;;;;;;23.60;5.90;;;;;7.70;96763.00;;;;8257029;28;20195;-75
2023/01/06 04:41:10;;;;;;;22.50;5.90;;;;;7.60;96758.00;;;;8256105;28;20864;-75
2023/01/06 04:45:15;;;;;;;21.97;5.23;;;;;7.50;96757.00;;;;8256320;28;20246;-75
2023/01/06 04:49:19;;;;;;;20.60;6.20;;;;;7.30;96744.00;;;;8256890;28;20195;-75
2023/01/06 04:53:22;;;;;;;32.20;7.13;;;;;7.10;96749.00;;;;8256383;28;20199;-74
2023/01/06 04:57:27;;;;;;;21.07;5.60;;;;;7.00;96747.00;;;;8254796;28;20249;-75
2023/01/06 05:01:35;;;;;;;27.97;6.80;;;;;6.80;96745.00;;;;8255001;28;20229;-74
2023/01/06 05:05:38;;;;;;;18.63;6.13;;;;;6.70;96744.00;;;;8256446;28;20203;-74
2023/01/06 05:09:43;;;;;;;46.00;9.40;;;;;6.60;96743.00;;;;8252793;28;20277;-75
2023/01/06 05:13:50;;;;;;;42.00;8.20;;;;;6.50;96750.00;;;;8255714;28;20234;-74
2023/01/06 05:17:54;;;;;;;24.70;7.17;;;;;6.40;96744.00;;;;8253326;28;20225;-76
2023/01/06 05:22:00;;;;;;;23.27;8.53;;;;;6.40;96749.00;;;;8256250;28;20227;-75
2023/01/06 05:26:04;;;;;;;45.20;8.13;;;;;6.40;96754.00;;;;8256541;28;20202;-75
2023/01/06 05:30:11;;;;;;;28.63;8.37;;;;;6.40;96752.00;;;;8254804;28;20286;-74
2023/01/06 05:34:16;;;;;;;26.57;9.03;;;;;6.40;96758.00;;;;8256130;28;20261;-75
2023/01/06 05:38:19;;;;;;;34.07;10.33;;;;;6.50;96758.00;;;;8263573;28;20195;-75
2023/01/06 05:42:24;;;;;;;39.20;11.53;;;;;6.60;96757.00;;;;8259943;28;20230;-75
2023/01/06 05:46:27;;;;;;;34.13;11.83;;;;;6.80;96759.00;;;;8255131;28;20199;-74
2023/01/06 05:50:33;;;;;;;42.00;10.87;;;;;7.00;96758.00;;;;8247992;28;20192;-74
2023/01/06 05:54:39;;;;;;;36.90;13.30;;;;;7.20;96755.00;;;;8264365;28;20209;-75
2023/01/06 05:58:45;;;;;;;50.17;13.03;;;;;7.30;96771.00;;;;8260452;28;20206;-74
2023/01/06 06:02:48;;;;;;;51.67;12.87;;;;;7.50;96773.00;;;;8256111;28;20226;-76
2023/01/06 06:06:53;;;;;;;36.13;12.47;;;;;7.70;96773.00;;;;8256543;28;20960;-76
2023/01/06 06:10:56;;;;;;;51.60;13.57;;;;;7.80;96775.00;;;;8246950;28;20735;-76
2023/01/06 06:14:59;;;;;;;69.17;17.87;;;;;8.00;96769.00;;;;8247830;28;20210;-74
2023/01/06 06:19:08;;;;;;;93.00;22.30;;;;;8.10;96768.00;;;;8252489;28;20327;-76
2023/01/06 06:23:14;;;;;;;85.53;19.97;;;;;8.30;96760.00;;;;8256421;28;20226;-75
2023/01/06 06:27:17;;;;;;;213.70;25.13;;;;;8.50;96751.00;;;;8255038;28;20702;-75
2023/01/06 06:31:26;;;;;;;110.30;21.00;;;;;8.60;96748.00;;;;8253421;28;20211;-75
2023/01/06 06:35:31;;;;;;;215.83;24.93;;;;;8.60;96746.00;;;;8257217;28;20218;-75
2023/01/06 06:39:35;;;;;;;135.50;25.27;;;;;8.70;96747.00;;;;8256232;28;20215;-76
2023/01/06 06:43:39;;;;;;;100.03;23.07;;;;;8.80;96743.00;;;;8253216;28;20591;-76
2023/01/06 06:47:42;;;;;;;112.47;22.88;;;;;8.90;96730.00;;;;8253002;28;20195;-75
2023/01/06 06:51:47;;;;;;;118.25;26.13;;;;;8.90;96731.00;;;;8252843;28;20804;-76
2023/01/06 06:55:54;;;;;;;106.80;24.07;;;;;9.00;96724.00;;;;8258322;28;20207;-75
2023/01/06 06:59:59;;;;;;;85.47;20.80;;;;;9.00;96731.00;;;;8240624;28;20213;-74
2023/01/06 07:04:07;;;;;;;85.57;22.50;;;;;9.10;96750.00;;;;8253032;28;20226;-75
2023/01/06 07:08:10;;;;;;;86.47;22.50;;;;;9.10;96743.00;;;;8259664;28;20206;-75
2023/01/06 07:12:15;;;;;;;88.50;20.42;;;;;9.10;96749.00;;;;8250057;28;20199;-75
2023/01/06 07:16:18;;;;;;;79.77;20.73;;;;;9.20;96749.00;;;;8246922;28;20199;-76
2023/01/06 07:20:24;;;;;;;86.43;21.05;;;;;9.20;96748.00;;;;8242866;28;21634;-75
2023/01/06 07:24:29;;;;;;;84.63;21.27;;;;;9.30;96743.00;;;;8245238;28;20227;-74
2023/01/06 07:28:34;;;;;;;84.75;22.02;;;;;9.30;96746.00;;;;8250312;28;20199;-74
2023/01/06 07:32:42;;;;;;;79.60;20.30;;;;;9.40;96750.00;;;;8253412;28;20275;-76
2023/01/06 07:36:45;;;;;;;87.73;20.53;;;;;9.40;96741.00;;;;8251352;28;20294;-75
2023/01/06 07:40:49;;;;;;;75.00;22.05;;;;;9.40;96743.00;;;;8253465;28;20254;-74
2023/01/06 07:44:53;;;;;;;80.22;20.75;;;;;9.50;96752.00;;;;8253128;28;20237;-76
2023/01/06 07:48:57;;;;;;;78.05;20.48;;;;;9.50;96755.00;;;;8244741;28;20207;-74
2023/01/06 07:53:02;;;;;;;69.45;20.38;;;;;9.60;96766.00;;;;8247376;28;20936;-75
2023/01/06 07:57:05;;;;;;;69.22;20.60;;;;;9.60;96775.00;;;;8247653;28;20872;-76
2023/01/06 08:01:11;;;;;;;76.28;20.83;;;;;9.60;96788.00;;;;8247873;28;20228;-76
2023/01/06 08:05:14;;;;;;;66.63;19.23;;;;;9.50;96783.00;;;;8250750;28;20918;-75
2023/01/06 08:09:21;;;;;;;75.72;20.38;;;;;9.50;96786.00;;;;8246886;28;20206;-73
2023/01/06 08:13:26;;;;;;;77.90;21.25;;;;;9.50;96795.00;;;;8247918;28;20210;-76
2023/01/06 08:17:33;;;;;;;69.22;18.58;;;;;9.50;96788.00;;;;8248106;28;20203;-74
2023/01/06 08:21:37;;;;;;;70.85;19.77;;;;;9.50;96795.00;;;;8250448;28;20199;-73
2023/01/06 08:25:41;;;;;;;65.22;18.83;;;;;9.50;96799.00;;;;8246143;28;20262;-76
2023/01/06 08:29:44;;;;;;;66.47;19.45;;;;;9.60;96791.00;;;;8248303;28;20206;-75
2023/01/06 08:33:52;;;;;;;53.50;17.50;;;;;9.60;96786.00;;;;8249286;28;20207;-73
2023/01/06 08:37:55;;;;;;;53.92;17.65;;;;;9.70;96787.00;;;;8235453;28;20206;-73
2023/01/06 08:41:59;;;;;;;60.33;17.65;;;;;9.80;96784.00;;;;8246236;28;20195;-77
2023/01/06 08:46:07;;;;;;;54.92;18.20;;;;;9.80;96784.00;;;;8245465;28;21000;-76
2023/01/06 08:50:13;;;;;;;56.67;17.77;;;;;9.90;96777.00;;;;8248684;28;20211;-72
2023/01/06 08:54:16;;;;;;;60.60;20.45;;;;;10.00;96782.00;;;;8251526;28;20573;-73
2023/01/06 08:58:19;;;;;;;50.40;18.08;;;;;10.20;96770.00;;;;8251839;28;20254;-74
2023/01/06 09:02:29;;;;;;;47.67;17.00;;;;;10.30;96781.00;;;;8255593;28;20226;-74
2023/01/06 09:06:35;;;;;;;43.17;16.88;;;;;10.50;96775.00;;;;8254115;28;20210;-73
2023/01/06 09:10:38;;;;;;;45.40;16.83;;;;;10.60;96777.00;;;;8242611;28;20199;-73
2023/01/06 09:14:42;;;;;;;42.58;15.60;;;;;10.70;96776.00;;;;8249170;28;20203;-77
2023/01/06 09:18:48;;;;;;;43.13;16.25;;;;;10.70;96780.00;;;;8252904;28;20222;-76
2023/01/06 09:22:53;;;;;;;41.55;15.63;;;;;10.70;96776.00;;;;8252308;28;20737;-74
2023/01/06 09:26:59;;;;;;;35.20;13.63;;;;;10.70;96777.00;;;;8253999;28;20250;-74
2023/01/06 09:31:02;;;;;;;38.72;15.48;;;;;10.60;96780.00;;;;8254949;28;20579;-74
2023/01/06 09:35:08;;;;;;;34.03;14.50;;;;;10.60;96781.00;;;;8255695;28;20199;-73
2023/01/06 09:39:12;;;;;;;33.83;14.43;;;;;10.70;96782.00;;;;8246895;28;20266;-75
2023/01/06 09:43:26;;;;;;;32.80;14.55;;;;;10.90;96786.00;;;;8252511;28;20281;-76
2023/01/06 09:47:34;;;;;;;32.53;14.93;;;;;11.10;96785.00;;;;8250322;28;20199;-74
2023/01/06 09:51:37;;;;;;;33.63;14.68;;;;;11.40;96788.00;;;;8254158;28;20205;-76
2023/01/06 09:55:47;;;;;;;22.58;12.10;;;;;11.50;96781.00;;;;8253371;28;21043;-77
2023/01/06 09:59:58;;;;;;;19.30;9.75;;;;;11.50;96776.00;;;;8251111;28;20234;-73
2023/01/06 10:04:04;;;;;;;22.30;11.32;;;;;11.60;96762.00;;;;8252567;28;20804;-77
2023/01/06 10:08:17;;;;;;;26.92;12.93;;;;;11.70;96770.00;;;;8245450;28;20314;-77
2023/01/06 10:12:32;;;;;;;19.77;11.02;;;;;11.80;96773.00;;;;8241542;28;20231;-73
2023/01/06 10:16:53;;;;;;;23.15;11.82;;;;;11.90;96760.00;;;;8253030;28;20262;-72
2023/01/06 10:21:07;;;;;;;16.80;9.35;;;;;12.00;96759.00;;;;8250911;28;20206;-77
2023/01/06 10:25:18;;;;;;;11.93;7.13;;;;;11.90;96751.00;;;;8251477;28;20288;-73
2023/01/06 10:29:29;;;;;;;10.55;7.15;;;;;11.70;96748.00;;;;8251958;28;20279;-76
2023/01/06 10:33:40;;;;;;;11.23;6.35;;;;;11.70;96746.00;;;;8253492;28;20267;-74
2023/01/06 10:37:53;;;;;;;9.63;6.28;;;;;11.80;96748.00;;;;8250804;28;20268;-77
2023/01/06 10:46:33;;;;;;;7.47;5.40;;;;;12.50;96731.00;;;;8250342;28;20561;-79
2023/01/06 10:50:39;;;;;;;6.72;5.65;;;;;12.60;96736.00;;;;8245965;28;20281;-79
2023/01/06 10:54:44;;;;;;;6.95;4.85;;;;;12.60;96730.00;;;;8247485;28;20263;-75
2023/01/06 10:58:52;;;;;;;5.65;4.45;;;;;12.70;96735.00;;;;8240814;28;20275;-79
2023/01/06 11:03:05;;;;;;;4.63;4.22;;;;;12.60;96732.00;;;;8236060;28;20238;-75
2023/01/06 11:07:31;;;;;;;5.28;4.30;;;;;12.60;96728.00;;;;8242051;28;20205;-73
2023/01/06 11:11:48;;;;;;;6.10;4.63;;;;;12.70;96720.00;;;;8244670;28;20212;-76
2023/01/06 11:15:53;;;;;;;4.80;4.00;;;;;12.80;96715.00;;;;8244574;28;20933;-74
2023/01/06 11:20:28;;;;;;;7.07;5.10;;;;;12.80;96696.00;;;;8243471;28;20681;-77
2023/01/06 11:24:33;;;;;;;6.30;4.82;;;;;12.70;96694.00;;;;8245731;28;20222;-79
2023/01/06 11:28:38;;;;;;;7.32;4.50;;;;;12.60;96694.00;;;;8243180;28;20622;-73
2023/01/06 11:32:42;;;;;;;8.63;5.75;;;;;12.40;96702.00;;;;8242628;28;20219;-76
2023/01/06 11:36:48;;;;;;;5.93;5.22;;;;;12.30;96689.00;;;;8245212;28;20209;-74
2023/01/06 11:40:54;;;;;;;9.90;6.07;;;;;12.20;96699.00;;;;8236863;28;20640;-73
2023/01/06 11:44:58;;;;;;;9.98;6.03;;;;;12.20;96690.00;;;;8246129;28;20226;-72
2023/01/06 11:49:08;;;;;;;8.32;5.85;;;;;12.20;96699.00;;;;8243992;28;20210;-75
2023/01/06 11:53:20;;;;;;;6.82;5.43;;;;;12.20;96687.00;;;;8246912;28;20892;-73
2023/01/06 11:57:35;;;;;;;5.88;4.55;;;;;12.10;96696.00;;;;8245625;28;20198;-75
2023/01/06 12:01:46;;;;;;;6.43;4.50;;;;;12.00;96685.00;;;;8241493;28;20210;-73
2023/01/06 12:05:56;;;;;;;3.42;3.20;;;;;12.00;96690.00;;;;8246056;28;20939;-72
2023/01/06 12:10:08;;;;;;;3.60;3.30;;;;;12.00;96693.00;;;;8246157;28;20190;-73
2023/01/06 12:14:14;;;;;;;3.83;3.25;;;;;12.10;96699.00;;;;8238151;28;20260;-74
2023/01/06 12:18:35;;;;;;;3.42;3.13;;;;;12.10;96702.00;;;;8245400;28;20204;-75
2023/01/06 12:22:41;;;;;;;3.10;2.85;;;;;12.10;96703.00;;;;8245554;28;20696;-72
2023/01/06 12:26:52;;;;;;;2.03;1.92;;;;;12.00;96707.00;;;;8246456;28;20229;-74
2023/01/06 12:31:00;;;;;;;1.90;1.80;;;;;11.90;96708.00;;;;8249456;28;20203;-75
2023/01/06 12:35:10;;;;;;;1.60;1.60;;;;;11.80;96701.00;;;;8251285;28;20212;-75
2023/01/06 12:39:25;;;;;;;2.22;1.85;;;;;11.70;96705.00;;;;8251969;28;20209;-74
2023/01/06 12:43:35;;;;;;;2.53;2.00;;;;;11.50;96708.00;;;;8249602;28;20749;-73
2023/01/06 12:47:44;;;;;;;2.38;1.70;;;;;11.50;96725.00;;;;8249820;28;20206;-73
2023/01/06 12:51:55;;;;;;;1.50;1.35;;;;;11.40;96715.00;;;;8249096;28;20195;-73
2023/01/06 12:56:19;;;;;;;2.40;1.92;;;;;11.40;96711.00;;;;8252533;28;20211;-76
2023/01/06 13:00:45;;;;;;;1.80;1.42;;;;;11.50;96709.00;;;;8249135;28;20206;-74
2023/01/06 13:04:58;;;;;;;1.63;1.52;;;;;11.60;96726.00;;;;8246260;28;20276;-75
2023/01/06 13:09:21;;;;;;;1.88;1.45;;;;;11.60;96732.00;;;;8248815;28;20315;-75
2023/01/06 13:13:46;;;;;;;1.40;1.40;;;;;11.70;96736.00;;;;8266005;28;20254;-71
2023/01/06 13:18:03;;;;;;;1.70;1.60;;;;;11.70;96723.00;;;;8266477;28;20260;-71
2023/01/06 13:22:13;;;;;;;1.23;1.23;;;;;11.80;96721.00;;;;8265452;28;20198;-71
2023/01/06 13:26:34;;;;;;;1.80;1.65;;;;;11.80;96716.00;;;;8265944;28;20237;-71
2023/01/06 13:31:16;;;;;;;1.60;1.50;;;;;11.80;96710.00;;;;8262637;28;20249;-71
2023/01/06 13:35:45;;;;;;;1.58;1.48;;;;;11.80;96700.00;;;;8251286;28;20194;-72
2023/01/06 13:39:54;;;;;;;6.95;3.75;;;;;11.80;96685.00;;;;8268400;28;20556;-71
2023/01/06 13:44:26;;;;;;;8.80;7.28;;;;;11.80;96693.00;;;;8269703;28;20252;-71
2023/01/06 13:48:33;;;;;;;7.57;6.68;;;;;11.90;96693.00;;;;8270029;28;20253;-72
2023/01/06 13:52:37;;;;;;;5.20;4.43;;;;;11.80;96692.00;;;;8269892;28;20203;-71
2023/01/06 13:57:11;;;;;;;15.90;12.10;;;;;11.70;96692.00;;;;8269184;28;20198;-71
2023/01/06 14:01:48;;;;;;;9.05;6.30;;;;;11.70;96691.00;;;;8268897;28;20230;-72
2023/01/06 14:05:58;;;;;;;60.22;39.38;;;;;11.70;96697.00;;;;8270086;28;20559;-71
2023/01/06 14:10:32;;;;;;;7.15;5.05;;;;;11.70;96702.00;;;;8269148;28;20531;-71
2023/01/06 14:15:05;;;;;;;5.78;5.25;;;;;11.70;96697.00;;;;8268982;28;20268;-71
2023/01/06 14:19:39;;;;;;;10.10;8.40;;;;;11.60;96706.00;;;;8269441;28;20244;-70
2023/01/06 14:24:20;;;;;;;11.07;8.93;;;;;11.50;96714.00;;;;8268210;28;20198;-71
2023/01/06 14:38:38;;;;;;;8.98;8.23;;;;;11.40;96739.00;;;;8268612;28;20197;-70
2023/01/06 14:43:19;;;;;;;1.42;1.33;;;;;11.40;96748.00;;;;8267914;28;20199;-70
2023/01/06 14:47:30;;;;;;;3.42;2.15;;;;;11.40;96749.00;;;;8267540;28;20270;-71
2023/01/06 14:51:34;;;;;;;2.47;1.52;;;;;11.40;96741.00;;;;8267451;28;20183;-71
2023/01/06 14:56:16;;;;;;;2.70;2.60;;;;;11.30;96745.00;;;;8267125;28;20230;-71
2023/01/06 15:00:47;;;;;;;2.65;2.35;;;;;11.30;96746.00;;;;8267482;28;20207;-71
2023/01/06 15:04:56;;;;;;;1.05;1.05;;;;;11.30;96756.00;;;;8267683;28;20252;-71
2023/01/06 15:09:32;;;;;;;1.50;1.40;;;;;11.20;96751.00;;;;8267983;28;20253;-71
2023/01/06 15:14:24;;;;;;;9.18;8.45;;;;;11.20;96749.00;;;;8267657;28;20552;-71
2023/01/06 15:18:31;;;;;;;1.75;1.75;;;;;11.20;96758.00;;;;8215937;28;20198;-72
2023/01/06 15:22:36;;;;;;;4.80;4.47;;;;;11.20;96761.00;;;;8265159;28;20199;-71
2023/01/06 15:26:42;;;;;;;4.72;4.43;;;;;11.20;96763.00;;;;8263738;28;20230;-72
2023/01/06 15:31:19;;;;;;;1.02;1.02;;;;;11.10;96762.00;;;;8267307;28;20198;-71
2023/01/06 15:35:58;;;;;;;2.38;0.85;;;;;11.10;96772.00;;;;8264317;28;20195;-72
2023/01/06 15:40:36;;;;;;;0.85;0.85;;;;;11.00;96775.00;;;;8267367;28;20200;-71
2023/01/06 15:44:55;;;;;;;1.13;1.13;;;;;11.00;96772.00;;;;8266592;28;20310;-71
2023/01/06 15:49:24;;;;;;;0.90;0.90;;;;;11.00;96773.00;;;;8265807;28;20194;-71
2023/01/06 15:53:57;;;;;;;1.10;1.10;;;;;11.00;96774.00;;;;8266005;28;20209;-72
2023/01/06 15:58:29;;;;;;;2.28;1.10;;;;;11.00;96783.00;;;;8266501;28;20201;-71
2023/01/06 16:02:34;;;;;;;2.70;1.05;;;;;10.90;96787.00;;;;8272404;28;20223;-71
2023/01/06 16:06:40;;;;;;;1.30;1.20;;;;;10.90;96794.00;;;;8276832;28;20225;-71
2023/01/06 16:10:47;;;;;;;0.95;0.95;;;;;10.90;96807.00;;;;8276344;28;20221;-71
2023/01/06 16:15:27;;;;;;;1.15;1.15;;;;;10.90;96804.00;;;;8274332;28;20217;-71
2023/01/06 16:20:06;;;;;;;0.93;0.93;;;;;10.80;96801.00;;;;8276875;28;20206;-71
2023/01/06 16:24:42;;;;;;;1.05;1.05;;;;;10.80;96799.00;;;;8275974;28;20263;-71
2023/01/06 16:29:16;;;;;;;1.10;1.10;;;;;10.80;96796.00;;;;8274776;28;20185;-71
2023/01/06 16:33:54;;;;;;;1.10;1.10;;;;;10.80;96804.00;;;;8273767;28;20191;-71
2023/01/06 16:38:04;;;;;;;1.10;1.10;;;;;10.80;96795.00;;;;8274427;28;20541;-72
2023/01/06 16:42:49;;;;;;;0.90;0.90;;;;;10.80;96801.00;;;;8274015;28;20278;-71
2023/01/06 16:47:36;;;;;;;0.95;0.95;;;;;10.80;96807.00;;;;8272486;28;20271;-71
2023/01/06 16:52:14;;;;;;;10.73;1.10;;;;;10.80;96804.00;;;;8270317;28;20666;-71
2023/01/06 16:56:52;;;;;;;0.95;0.95;;;;;10.80;96799.00;;;;8276971;28;20208;-71
2023/01/06 17:01:26;;;;;;;1.10;1.10;;;;;10.80;96802.00;;;;8276079;28;20544;-71
2023/01/06 17:11:15;;;;;;;1.10;1.10;;;;;10.80;96818.00;;;;8272894;28;20195;-72
2023/01/06 17:15:43;;;;;;;1.17;1.10;;;;;10.80;96813.00;;;;8269847;28;20704;-72
2023/01/06 17:20:17;;;;;;;1.10;1.10;;;;;10.90;96818.00;;;;8260892;28;20204;-71
2023/01/06 17:24:58;;;;;;;1.83;1.50;;;;;10.90;96811.00;;;;8271001;28;20598;-71
2023/01/06 17:29:33;;;;;;;1.60;1.50;;;;;10.90;96817.00;;;;8265767;28;20195;-71
2023/01/06 17:34:16;;;;;;;1.50;1.40;;;;;10.90;96819.00;;;;8268414;28;20195;-71
2023/01/06 17:38:45;;;;;;;2.22;1.98;;;;;10.90;96823.00;;;;8270673;28;20227;-71
2023/01/06 17:43:24;;;;;;;2.63;2.25;;;;;10.80;96818.00;;;;8269937;28;20608;-71
2023/01/06 17:47:55;;;;;;;2.30;2.10;;;;;10.80;96823.00;;;;8269403;28;20292;-71
2023/01/06 17:52:36;;;;;;;2.92;2.72;;;;;10.80;96825.00;;;;8269470;28;20582;-71
2023/01/06 17:57:14;;;;;;;11.13;5.95;;;;;10.80;96829.00;;;;8269350;28;20186;-71
2023/01/06 18:01:23;;;;;;;35.05;21.95;;;;;10.80;96834.00;;;;8269654;28;20574;-71
2023/01/06 18:05:58;;;;;;;10.27;6.45;;;;;10.70;96835.00;;;;8269190;28;20296;-72
2023/01/06 18:10:35;;;;;;;34.28;18.20;;;;;10.70;96836.00;;;;8269994;28;20259;-72
2023/01/06 18:15:31;;;;;;;8.13;4.00;;;;;10.60;96827.00;;;;8266743;28;20247;-71
2023/01/06 18:19:50;;;;;;;196.40;82.85;;;;;10.60;96838.00;;;;8264372;28;20259;-71
2023/01/06 18:23:53;;;;;;;10.07;6.43;;;;;10.60;96837.00;;;;8261965;28;20209;-72
2023/01/06 18:28:30;;;;;;;5.93;2.83;;;;;10.60;96839.00;;;;8263980;28;20545;-72
2023/01/06 18:33:13;;;;;;;7.65;4.55;;;;;10.60;96834.00;;;;8263540;28;20201;-73
2023/01/06 18:37:22;;;;;;;6.88;5.70;;;;;10.60;96833.00;;;;8265882;28;20183;-72
2023/01/06 18:42:01;;;;;;;3.90;3.47;;;;;10.50;96827.00;;;;8264237;28;20202;-72
2023/01/06 18:46:30;;;;;;;6.28;5.28;;;;;10.50;96840.00;;;;8262448;28;20310;-71
2023/01/06 18:51:13;;;;;;;14.00;10.90;;;;;10.50;96836.00;;;;8265782;28;20195;-73
2023/01/06 18:55:22;;;;;;;41.30;31.60;;;;;10.40;96831.00;;;;8262898;28;20242;-71
2023/01/06 18:59:54;;;;;;;37.08;26.83;;;;;10.40;96843.00;;;;8263029;28;20202;-71
2023/01/06 19:04:01;;;;;;;310.45;172.32;;;;;10.40;96835.00;;;;8262018;28;20223;-71
2023/01/06 19:08:35;;;;;;;411.20;230.85;;;;;10.40;96832.00;;;;8263031;28;20234;-71
2023/01/06 19:13:14;;;;;;;31.60;16.10;;;;;10.30;96840.00;;;;8262100;28;20259;-71
2023/01/06 19:17:25;;;;;;;107.50;55.38;;;;;10.30;96833.00;;;;8263441;28;20203;-71
2023/01/06 19:21:29;;;;;;;92.57;32.72;;;;;10.30;96839.00;;;;8263197;28;20644;-71
2023/01/06 19:26:02;;;;;;;1546.97;435.40;;;;;10.20;96839.00;;;;8266595;28;20197;-71
2023/01/06 19:30:42;;;;;;;1869.00;621.40;;;;;10.20;96838.00;;;;8267061;28;20222;-70
2023/01/06 19:35:21;;;;;;;84.20;43.45;;;;;10.30;96841.00;;;;8267103;28;20207;-70
2023/01/06 19:39:32;;;;;;;44.55;28.13;;;;;10.30;96837.00;;;;8267221;28;20269;-69
2023/01/06 19:44:00;;;;;;;19.90;10.82;;;;;10.30;96834.00;;;;8266833;28;20589;-69
2023/01/06 19:48:13;;;;;;;13.27;8.23;;;;;10.40;96828.00;;;;8266706;28;20550;-70
2023/01/06 19:52:38;;;;;;;11.73;6.53;;;;;10.40;96842.00;;;;8266221;28;20214;-71
2023/01/06 19:57:19;;;;;;;10.25;6.28;;;;;10.30;96843.00;;;;8266244;28;20225;-70
2023/01/06 20:01:52;;;;;;;11.10;6.10;;;;;10.30;96837.00;;;;8266258;28;20229;-69
2023/01/06 20:06:30;;;;;;;10.82;5.72;;;;;10.30;96845.00;;;;8266106;28;20238;-70
2023/01/06 20:11:06;;;;;;;10.23;5.78;;;;;10.30;96843.00;;;;8266028;28;20215;-70
2023/01/06 20:15:39;;;;;;;8.10;6.50;;;;;10.30;96843.00;;;;8265537;28;20662;-70
2023/01/06 20:20:17;;;;;;;8.50;6.22;;;;;10.30;96831.00;;;;8265016;28;20257;-71
2023/01/06 20:24:55;;;;;;;9.48;5.63;;;;;10.30;96842.00;;;;8266241;28;20191;-70
2023/01/06 20:29:31;;;;;;;7.45;5.50;;;;;10.30;96850.00;;;;8265050;28;20227;-70
2023/01/06 20:34:05;;;;;;;12.45;6.30;;;;;10.20;96844.00;;;;8265203;28;20196;-71
2023/01/06 20:38:42;;;;;;;12.38;6.53;;;;;10.20;96848.00;;;;8265563;28;20202;-70
2023/01/06 20:42:49;;;;;;;10.40;6.15;;;;;10.20;96849.00;;;;8265697;28;20525;-70
2023/01/06 20:47:23;;;;;;;11.07;7.15;;;;;10.20;96854.00;;;;8264728;28;20318;-70
2023/01/06 20:51:57;;;;;;;16.20;8.40;;;;;10.20;96859.00;;;;8270584;28;20202;-70
2023/01/06 20:56:00;;;;;;;18.52;8.90;;;;;10.20;96856.00;;;;8270311;28;20203;-70
2023/01/06 21:00:06;;;;;;;14.05;8.35;;;;;10.20;96855.00;;;;8270489;28;20248;-70
2023/01/06 21:04:09;;;;;;;13.00;7.20;;;;;10.20;96844.00;;;;8272418;28;20277;-70
2023/01/06 21:08:46;;;;;;;11.00;7.22;;;;;10.10;96850.00;;;;8270664;28;20656;-71
2023/01/06 21:13:22;;;;;;;13.80;6.95;;;;;10.10;96851.00;;;;8271606;28;20200;-70
2023/01/06 21:17:27;;;;;;;10.68;6.95;;;;;10.10;96840.00;;;;8271150;28;20544;-70
2023/01/06 21:22:01;;;;;;;12.15;6.65;;;;;10.00;96835.00;;;;8270116;28;20213;-70
2023/01/06 21:26:06;;;;;;;9.85;7.15;;;;;9.90;96827.00;;;;8270549;28;20191;-70